sensor_id;sensor_type;location;lat;lon;timestamp;P1;durP1;ratioP1;P2;durP2;ratioP2
22794;SDS011;11564;50.920;11.612;2023-08-07T00:01:51;3.33;;;3.03;;
22794;SDS011;11564;50.920;11.612;2023-08-07T00:04:16;3.17;;;2.97;;
22794;SDS011;11564;50.920;11.612;2023-08-07T00:06:42;2.87;;;2.67;;
22794;SDS011;11564;50.920;11.612;2023-08-07T00:09:07;5.70;;;2.83;;
22794;SDS011;11564;50.920;11.612;2023-08-07T00:11:33;2.60;;;2.50;;
22794;SDS011;11564;50.920;11.612;2023-08-07T00:13:59;3.07;;;2.87;;
22794;SDS011;11564;50.920;11.612;2023-08-07T00:16:25;3.23;;;3.00;;
22794;SDS011;11564;50.920;11.612;2023-08-07T00:18:51;4.00;;;2.70;;
22794;SDS011;11564;50.920;11.612;2023-08-07T00:21:20;2.60;;;2.50;;
22794;SDS011;11564;50.920;11.612;2023-08-07T00:23:47;3.23;;;3.03;;
22794;SDS011;11564;50.920;11.612;2023-08-07T00:26:12;2.90;;;2.70;;
22794;SDS011;11564;50.920;11.612;2023-08-07T00:28:38;2.50;;;2.20;;
22794;SDS011;11564;50.920;11.612;2023-08-07T00:31:03;3.00;;;2.80;;
22794;SDS011;11564;50.920;11.612;2023-08-07T00:33:29;3.77;;;2.63;;
22794;SDS011;11564;50.920;11.612;2023-08-07T00:35:54;2.73;;;2.53;;
22794;SDS011;11564;50.920;11.612;2023-08-07T00:38:20;2.57;;;2.37;;
22794;SDS011;11564;50.920;11.612;2023-08-07T00:40:46;2.27;;;2.17;;
22794;SDS011;11564;50.920;11.612;2023-08-07T00:43:11;2.20;;;2.10;;
22794;SDS011;11564;50.920;11.612;2023-08-07T00:45:38;3.10;;;2.30;;
22794;SDS011;11564;50.920;11.612;2023-08-07T00:48:07;1.90;;;1.80;;
22794;SDS011;11564;50.920;11.612;2023-08-07T00:50:32;3.10;;;2.20;;
22794;SDS011;11564;50.920;11.612;2023-08-07T00:52:58;2.83;;;2.63;;
22794;SDS011;11564;50.920;11.612;2023-08-07T00:55:25;3.13;;;2.00;;
22794;SDS011;11564;50.920;11.612;2023-08-07T00:57:50;2.27;;;2.17;;
22794;SDS011;11564;50.920;11.612;2023-08-07T01:00:16;2.27;;;2.17;;
22794;SDS011;11564;50.920;11.612;2023-08-07T01:02:43;2.03;;;1.93;;
22794;SDS011;11564;50.920;11.612;2023-08-07T01:05:09;2.60;;;2.10;;
22794;SDS011;11564;50.920;11.612;2023-08-07T01:07:35;3.20;;;1.90;;
22794;SDS011;11564;50.920;11.612;2023-08-07T01:10:00;2.00;;;1.90;;
22794;SDS011;11564;50.920;11.612;2023-08-07T01:12:33;2.17;;;2.07;;
22794;SDS011;11564;50.920;11.612;2023-08-07T01:15:11;3.60;;;2.40;;
22794;SDS011;11564;50.920;11.612;2023-08-07T01:17:40;2.03;;;1.90;;
22794;SDS011;11564;50.920;11.612;2023-08-07T01:20:08;1.80;;;1.70;;
22794;SDS011;11564;50.920;11.612;2023-08-07T01:22:34;1.97;;;1.87;;
22794;SDS011;11564;50.920;11.612;2023-08-07T01:25:00;2.10;;;2.00;;
22794;SDS011;11564;50.920;11.612;2023-08-07T01:27:34;2.20;;;1.53;;
22794;SDS011;11564;50.920;11.612;2023-08-07T01:30:23;5.13;;;2.13;;
22794;SDS011;11564;50.920;11.612;2023-08-07T01:32:59;1.73;;;1.63;;
22794;SDS011;11564;50.920;11.612;2023-08-07T01:35:51;2.63;;;2.20;;
22794;SDS011;11564;50.920;11.612;2023-08-07T01:38:18;1.70;;;1.60;;
22794;SDS011;11564;50.920;11.612;2023-08-07T01:40:48;1.87;;;1.77;;
22794;SDS011;11564;50.920;11.612;2023-08-07T01:43:15;2.17;;;1.97;;
22794;SDS011;11564;50.920;11.612;2023-08-07T01:45:41;2.07;;;1.97;;
22794;SDS011;11564;50.920;11.612;2023-08-07T01:48:07;4.50;;;1.87;;
22794;SDS011;11564;50.920;11.612;2023-08-07T01:50:32;6.93;;;2.20;;
22794;SDS011;11564;50.920;11.612;2023-08-07T01:52:59;3.30;;;2.10;;
22794;SDS011;11564;50.920;11.612;2023-08-07T01:55:27;2.30;;;2.20;;
22794;SDS011;11564;50.920;11.612;2023-08-07T01:57:52;2.47;;;2.27;;
22794;SDS011;11564;50.920;11.612;2023-08-07T02:00:18;2.80;;;2.47;;
22794;SDS011;11564;50.920;11.612;2023-08-07T02:02:44;4.83;;;2.37;;
22794;SDS011;11564;50.920;11.612;2023-08-07T02:05:13;2.50;;;2.00;;
22794;SDS011;11564;50.920;11.612;2023-08-07T02:07:39;2.80;;;2.60;;
22794;SDS011;11564;50.920;11.612;2023-08-07T02:10:05;4.53;;;2.40;;
22794;SDS011;11564;50.920;11.612;2023-08-07T02:12:30;2.90;;;2.60;;
22794;SDS011;11564;50.920;11.612;2023-08-07T02:14:57;2.00;;;1.90;;
22794;SDS011;11564;50.920;11.612;2023-08-07T02:17:24;2.70;;;2.50;;
22794;SDS011;11564;50.920;11.612;2023-08-07T02:19:50;3.03;;;2.73;;
22794;SDS011;11564;50.920;11.612;2023-08-07T02:22:16;4.27;;;2.20;;
22794;SDS011;11564;50.920;11.612;2023-08-07T02:24:41;4.60;;;2.77;;
22794;SDS011;11564;50.920;11.612;2023-08-07T02:27:07;6.10;;;2.07;;
22794;SDS011;11564;50.920;11.612;2023-08-07T02:29:33;2.90;;;2.03;;
22794;SDS011;11564;50.920;11.612;2023-08-07T02:32:01;3.60;;;2.50;;
22794;SDS011;11564;50.920;11.612;2023-08-07T02:34:28;3.43;;;2.60;;
22794;SDS011;11564;50.920;11.612;2023-08-07T02:36:54;2.80;;;2.20;;
22794;SDS011;11564;50.920;11.612;2023-08-07T02:39:19;2.40;;;2.30;;
22794;SDS011;11564;50.920;11.612;2023-08-07T02:41:45;2.73;;;2.53;;
22794;SDS011;11564;50.920;11.612;2023-08-07T02:44:11;6.10;;;2.77;;
22794;SDS011;11564;50.920;11.612;2023-08-07T02:46:36;2.90;;;2.13;;
22794;SDS011;11564;50.920;11.612;2023-08-07T02:49:04;4.23;;;2.50;;
22794;SDS011;11564;50.920;11.612;2023-08-07T02:51:30;1.80;;;1.70;;
22794;SDS011;11564;50.920;11.612;2023-08-07T02:53:56;3.43;;;1.80;;
22794;SDS011;11564;50.920;11.612;2023-08-07T02:56:21;3.27;;;1.67;;
22794;SDS011;11564;50.920;11.612;2023-08-07T02:58:47;1.90;;;1.80;;
22794;SDS011;11564;50.920;11.612;2023-08-07T03:01:12;1.67;;;1.50;;
22794;SDS011;11564;50.920;11.612;2023-08-07T03:03:38;1.83;;;1.60;;
22794;SDS011;11564;50.920;11.612;2023-08-07T03:06:04;2.90;;;1.70;;
22794;SDS011;11564;50.920;11.612;2023-08-07T03:08:29;1.67;;;1.57;;
22794;SDS011;11564;50.920;11.612;2023-08-07T03:10:57;1.83;;;1.50;;
22794;SDS011;11564;50.920;11.612;2023-08-07T03:13:23;1.80;;;1.70;;
22794;SDS011;11564;50.920;11.612;2023-08-07T03:16:01;1.53;;;1.43;;
22794;SDS011;11564;50.920;11.612;2023-08-07T03:18:28;4.30;;;1.53;;
22794;SDS011;11564;50.920;11.612;2023-08-07T03:20:55;2.40;;;1.43;;
22794;SDS011;11564;50.920;11.612;2023-08-07T03:23:21;2.20;;;1.70;;
22794;SDS011;11564;50.920;11.612;2023-08-07T03:25:48;2.30;;;2.10;;
22794;SDS011;11564;50.920;11.612;2023-08-07T03:28:13;2.73;;;1.93;;
22794;SDS011;11564;50.920;11.612;2023-08-07T03:30:39;1.57;;;1.47;;
22794;SDS011;11564;50.920;11.612;2023-08-07T03:33:05;1.73;;;1.63;;
22794;SDS011;11564;50.920;11.612;2023-08-07T03:35:32;2.77;;;1.50;;
22794;SDS011;11564;50.920;11.612;2023-08-07T03:37:57;1.87;;;1.67;;
22794;SDS011;11564;50.920;11.612;2023-08-07T03:40:23;1.50;;;1.40;;
22794;SDS011;11564;50.920;11.612;2023-08-07T03:42:48;3.97;;;2.00;;
22794;SDS011;11564;50.920;11.612;2023-08-07T03:45:14;2.80;;;1.43;;
22794;SDS011;11564;50.920;11.612;2023-08-07T03:47:40;3.60;;;1.70;;
22794;SDS011;11564;50.920;11.612;2023-08-07T03:50:05;3.90;;;1.37;;
22794;SDS011;11564;50.920;11.612;2023-08-07T03:52:32;1.63;;;1.27;;
22794;SDS011;11564;50.920;11.612;2023-08-07T03:54:57;4.67;;;1.67;;
22794;SDS011;11564;50.920;11.612;2023-08-07T03:57:23;1.43;;;1.27;;
22794;SDS011;11564;50.920;11.612;2023-08-07T03:59:50;5.60;;;1.53;;
22794;SDS011;11564;50.920;11.612;2023-08-07T04:02:15;1.23;;;1.13;;
22794;SDS011;11564;50.920;11.612;2023-08-07T04:04:41;1.07;;;1.07;;
22794;SDS011;11564;50.920;11.612;2023-08-07T04:07:06;1.50;;;1.40;;
22794;SDS011;11564;50.920;11.612;2023-08-07T04:09:32;2.20;;;1.70;;
22794;SDS011;11564;50.920;11.612;2023-08-07T04:11:58;1.87;;;1.63;;
22794;SDS011;11564;50.920;11.612;2023-08-07T04:14:24;4.60;;;1.30;;
22794;SDS011;11564;50.920;11.612;2023-08-07T04:16:50;1.17;;;1.07;;
22794;SDS011;11564;50.920;11.612;2023-08-07T04:19:16;1.60;;;1.50;;
22794;SDS011;11564;50.920;11.612;2023-08-07T04:21:41;1.80;;;1.40;;
22794;SDS011;11564;50.920;11.612;2023-08-07T04:24:07;1.20;;;1.10;;
22794;SDS011;11564;50.920;11.612;2023-08-07T04:26:35;1.77;;;1.67;;
22794;SDS011;11564;50.920;11.612;2023-08-07T04:29:02;1.53;;;1.43;;
22794;SDS011;11564;50.920;11.612;2023-08-07T04:31:28;2.07;;;1.30;;
22794;SDS011;11564;50.920;11.612;2023-08-07T04:33:56;1.20;;;1.10;;
22794;SDS011;11564;50.920;11.612;2023-08-07T04:36:22;1.30;;;1.10;;
22794;SDS011;11564;50.920;11.612;2023-08-07T04:38:49;4.47;;;1.20;;
22794;SDS011;11564;50.920;11.612;2023-08-07T04:41:15;1.87;;;1.33;;
22794;SDS011;11564;50.920;11.612;2023-08-07T04:43:40;1.43;;;1.13;;
22794;SDS011;11564;50.920;11.612;2023-08-07T04:46:07;1.20;;;1.10;;
22794;SDS011;11564;50.920;11.612;2023-08-07T04:48:34;1.20;;;0.77;;
22794;SDS011;11564;50.920;11.612;2023-08-07T04:51:00;1.70;;;0.80;;
22794;SDS011;11564;50.920;11.612;2023-08-07T04:53:27;1.03;;;0.93;;
22794;SDS011;11564;50.920;11.612;2023-08-07T04:55:52;2.57;;;0.80;;
22794;SDS011;11564;50.920;11.612;2023-08-07T04:58:18;1.30;;;0.97;;
22794;SDS011;11564;50.920;11.612;2023-08-07T05:00:44;2.20;;;0.70;;
22794;SDS011;11564;50.920;11.612;2023-08-07T05:03:09;0.70;;;0.70;;
22794;SDS011;11564;50.920;11.612;2023-08-07T05:05:35;1.43;;;1.10;;
22794;SDS011;11564;50.920;11.612;2023-08-07T05:08:00;0.90;;;0.60;;
22794;SDS011;11564;50.920;11.612;2023-08-07T05:10:27;0.90;;;0.90;;
22794;SDS011;11564;50.920;11.612;2023-08-07T05:15:22;1.47;;;0.50;;
22794;SDS011;11564;50.920;11.612;2023-08-07T05:17:49;1.73;;;0.80;;
22794;SDS011;11564;50.920;11.612;2023-08-07T05:20:16;1.37;;;0.87;;
22794;SDS011;11564;50.920;11.612;2023-08-07T05:22:42;5.60;;;1.00;;
22794;SDS011;11564;50.920;11.612;2023-08-07T05:25:08;0.80;;;0.60;;
22794;SDS011;11564;50.920;11.612;2023-08-07T05:27:34;0.80;;;0.60;;
22794;SDS011;11564;50.920;11.612;2023-08-07T05:30:02;1.63;;;0.83;;
22794;SDS011;11564;50.920;11.612;2023-08-07T05:32:29;0.80;;;0.80;;
22794;SDS011;11564;50.920;11.612;2023-08-07T05:34:55;0.80;;;0.80;;
22794;SDS011;11564;50.920;11.612;2023-08-07T05:37:20;1.30;;;0.87;;
22794;SDS011;11564;50.920;11.612;2023-08-07T05:39:46;1.10;;;1.00;;
22794;SDS011;11564;50.920;11.612;2023-08-07T05:42:12;0.97;;;0.87;;
22794;SDS011;11564;50.920;11.612;2023-08-07T05:44:38;3.83;;;0.90;;
22794;SDS011;11564;50.920;11.612;2023-08-07T05:47:03;0.70;;;0.60;;
22794;SDS011;11564;50.920;11.612;2023-08-07T05:49:29;0.90;;;0.70;;
22794;SDS011;11564;50.920;11.612;2023-08-07T05:51:55;0.70;;;0.60;;
22794;SDS011;11564;50.920;11.612;2023-08-07T05:54:21;1.10;;;1.00;;
22794;SDS011;11564;50.920;11.612;2023-08-07T05:56:46;1.63;;;0.93;;
22794;SDS011;11564;50.920;11.612;2023-08-07T05:59:12;1.20;;;0.87;;
22794;SDS011;11564;50.920;11.612;2023-08-07T06:01:38;1.10;;;0.80;;
22794;SDS011;11564;50.920;11.612;2023-08-07T06:04:05;1.53;;;1.43;;
22794;SDS011;11564;50.920;11.612;2023-08-07T06:06:31;2.30;;;0.70;;
22794;SDS011;11564;50.920;11.612;2023-08-07T06:08:59;0.70;;;0.60;;
22794;SDS011;11564;50.920;11.612;2023-08-07T06:11:26;0.87;;;0.87;;
22794;SDS011;11564;50.920;11.612;2023-08-07T06:13:52;1.20;;;0.60;;
22794;SDS011;11564;50.920;11.612;2023-08-07T06:16:18;0.87;;;0.60;;
22794;SDS011;11564;50.920;11.612;2023-08-07T06:18:43;0.80;;;0.50;;
22794;SDS011;11564;50.920;11.612;2023-08-07T06:21:09;0.70;;;0.60;;
22794;SDS011;11564;50.920;11.612;2023-08-07T06:23:36;1.23;;;0.60;;
22794;SDS011;11564;50.920;11.612;2023-08-07T06:26:02;0.80;;;0.70;;
22794;SDS011;11564;50.920;11.612;2023-08-07T06:28:29;2.80;;;0.50;;
22794;SDS011;11564;50.920;11.612;2023-08-07T06:31:04;2.60;;;0.57;;
22794;SDS011;11564;50.920;11.612;2023-08-07T06:33:33;0.80;;;0.60;;
22794;SDS011;11564;50.920;11.612;2023-08-07T06:35:59;2.50;;;0.57;;
22794;SDS011;11564;50.920;11.612;2023-08-07T06:38:26;0.67;;;0.57;;
22794;SDS011;11564;50.920;11.612;2023-08-07T06:40:51;2.07;;;0.50;;
22794;SDS011;11564;50.920;11.612;2023-08-07T06:43:17;1.83;;;0.47;;
22794;SDS011;11564;50.920;11.612;2023-08-07T06:45:43;0.70;;;0.50;;
22794;SDS011;11564;50.920;11.612;2023-08-07T06:48:12;0.80;;;0.60;;
22794;SDS011;11564;50.920;11.612;2023-08-07T06:50:37;2.40;;;0.50;;
22794;SDS011;11564;50.920;11.612;2023-08-07T06:53:03;0.90;;;0.80;;
22794;SDS011;11564;50.920;11.612;2023-08-07T06:55:28;1.63;;;0.60;;
22794;SDS011;11564;50.920;11.612;2023-08-07T06:57:54;1.43;;;0.53;;
22794;SDS011;11564;50.920;11.612;2023-08-07T07:00:20;2.30;;;0.70;;
22794;SDS011;11564;50.920;11.612;2023-08-07T07:02:45;0.80;;;0.70;;
22794;SDS011;11564;50.920;11.612;2023-08-07T07:05:11;0.60;;;0.50;;
22794;SDS011;11564;50.920;11.612;2023-08-07T07:07:36;0.80;;;0.60;;
22794;SDS011;11564;50.920;11.612;2023-08-07T07:10:03;0.80;;;0.50;;
22794;SDS011;11564;50.920;11.612;2023-08-07T07:12:29;2.60;;;0.97;;
22794;SDS011;11564;50.920;11.612;2023-08-07T07:14:54;0.73;;;0.57;;
22794;SDS011;11564;50.920;11.612;2023-08-07T07:17:20;0.93;;;0.83;;
22794;SDS011;11564;50.920;11.612;2023-08-07T07:19:45;1.00;;;0.70;;
22794;SDS011;11564;50.920;11.612;2023-08-07T07:22:11;0.90;;;0.50;;
22794;SDS011;11564;50.920;11.612;2023-08-07T07:24:37;0.70;;;0.70;;
22794;SDS011;11564;50.920;11.612;2023-08-07T07:27:04;1.80;;;0.60;;
22794;SDS011;11564;50.920;11.612;2023-08-07T07:29:30;0.70;;;0.50;;
22794;SDS011;11564;50.920;11.612;2023-08-07T07:31:56;2.80;;;0.60;;
22794;SDS011;11564;50.920;11.612;2023-08-07T07:34:21;0.80;;;0.50;;
22794;SDS011;11564;50.920;11.612;2023-08-07T07:36:47;2.13;;;0.70;;
22794;SDS011;11564;50.920;11.612;2023-08-07T07:39:13;0.80;;;0.50;;
22794;SDS011;11564;50.920;11.612;2023-08-07T07:41:38;0.70;;;0.40;;
22794;SDS011;11564;50.920;11.612;2023-08-07T07:44:04;0.80;;;0.60;;
22794;SDS011;11564;50.920;11.612;2023-08-07T07:46:30;0.83;;;0.50;;
22794;SDS011;11564;50.920;11.612;2023-08-07T07:48:57;0.67;;;0.40;;
22794;SDS011;11564;50.920;11.612;2023-08-07T07:51:23;1.33;;;0.40;;
22794;SDS011;11564;50.920;11.612;2023-08-07T07:53:49;0.80;;;0.60;;
22794;SDS011;11564;50.920;11.612;2023-08-07T07:56:15;0.60;;;0.37;;
22794;SDS011;11564;50.920;11.612;2023-08-07T07:58:40;0.60;;;0.40;;
22794;SDS011;11564;50.920;11.612;2023-08-07T08:01:06;2.30;;;0.60;;
22794;SDS011;11564;50.920;11.612;2023-08-07T08:03:32;0.70;;;0.40;;
22794;SDS011;11564;50.920;11.612;2023-08-07T08:05:58;0.90;;;0.70;;
22794;SDS011;11564;50.920;11.612;2023-08-07T08:08:24;0.60;;;0.40;;
22794;SDS011;11564;50.920;11.612;2023-08-07T08:10:50;0.60;;;0.37;;
22794;SDS011;11564;50.920;11.612;2023-08-07T08:13:16;0.70;;;0.40;;
22794;SDS011;11564;50.920;11.612;2023-08-07T08:15:43;0.60;;;0.40;;
22794;SDS011;11564;50.920;11.612;2023-08-07T08:18:10;0.60;;;0.30;;
22794;SDS011;11564;50.920;11.612;2023-08-07T08:20:36;0.60;;;0.30;;
22794;SDS011;11564;50.920;11.612;2023-08-07T08:23:02;3.87;;;0.47;;
22794;SDS011;11564;50.920;11.612;2023-08-07T08:25:28;1.57;;;0.60;;
22794;SDS011;11564;50.920;11.612;2023-08-07T08:27:54;0.80;;;0.50;;
22794;SDS011;11564;50.920;11.612;2023-08-07T08:30:20;0.60;;;0.40;;
22794;SDS011;11564;50.920;11.612;2023-08-07T08:32:46;2.60;;;0.40;;
22794;SDS011;11564;50.920;11.612;2023-08-07T08:35:11;1.60;;;0.40;;
22794;SDS011;11564;50.920;11.612;2023-08-07T08:37:37;0.90;;;0.30;;
22794;SDS011;11564;50.920;11.612;2023-08-07T08:40:03;0.87;;;0.30;;
22794;SDS011;11564;50.920;11.612;2023-08-07T08:42:29;0.60;;;0.30;;
22794;SDS011;11564;50.920;11.612;2023-08-07T08:44:55;0.60;;;0.30;;
22794;SDS011;11564;50.920;11.612;2023-08-07T08:47:21;0.70;;;0.40;;
22794;SDS011;11564;50.920;11.612;2023-08-07T08:49:53;1.83;;;0.50;;
22794;SDS011;11564;50.920;11.612;2023-08-07T08:52:28;0.70;;;0.40;;
22794;SDS011;11564;50.920;11.612;2023-08-07T08:54:56;0.60;;;0.40;;
22794;SDS011;11564;50.920;11.612;2023-08-07T08:57:22;0.60;;;0.47;;
22794;SDS011;11564;50.920;11.612;2023-08-07T08:59:49;0.70;;;0.40;;
22794;SDS011;11564;50.920;11.612;2023-08-07T09:02:15;0.93;;;0.50;;
22794;SDS011;11564;50.920;11.612;2023-08-07T09:04:43;0.80;;;0.50;;
22794;SDS011;11564;50.920;11.612;2023-08-07T09:07:09;0.80;;;0.40;;
22794;SDS011;11564;50.920;11.612;2023-08-07T09:09:38;0.60;;;0.40;;
22794;SDS011;11564;50.920;11.612;2023-08-07T09:12:05;0.87;;;0.40;;
22794;SDS011;11564;50.920;11.612;2023-08-07T09:14:33;1.00;;;0.40;;
22794;SDS011;11564;50.920;11.612;2023-08-07T09:17:01;0.70;;;0.50;;
22794;SDS011;11564;50.920;11.612;2023-08-07T09:19:28;0.90;;;0.50;;
22794;SDS011;11564;50.920;11.612;2023-08-07T09:21:53;0.70;;;0.50;;
22794;SDS011;11564;50.920;11.612;2023-08-07T09:24:19;1.47;;;0.50;;
22794;SDS011;11564;50.920;11.612;2023-08-07T09:26:47;1.00;;;0.40;;
22794;SDS011;11564;50.920;11.612;2023-08-07T09:29:15;0.80;;;0.60;;
22794;SDS011;11564;50.920;11.612;2023-08-07T09:31:43;2.40;;;0.50;;
22794;SDS011;11564;50.920;11.612;2023-08-07T09:34:11;0.97;;;0.60;;
22794;SDS011;11564;50.920;11.612;2023-08-07T09:36:38;0.60;;;0.30;;
22794;SDS011;11564;50.920;11.612;2023-08-07T09:39:06;0.60;;;0.40;;
22794;SDS011;11564;50.920;11.612;2023-08-07T09:41:31;0.60;;;0.40;;
22794;SDS011;11564;50.920;11.612;2023-08-07T09:43:57;0.63;;;0.40;;
22794;SDS011;11564;50.920;11.612;2023-08-07T09:46:25;1.10;;;0.50;;
22794;SDS011;11564;50.920;11.612;2023-08-07T09:48:51;4.23;;;0.43;;
22794;SDS011;11564;50.920;11.612;2023-08-07T09:51:16;2.77;;;0.40;;
22794;SDS011;11564;50.920;11.612;2023-08-07T09:53:42;0.70;;;0.40;;
22794;SDS011;11564;50.920;11.612;2023-08-07T09:56:08;0.60;;;0.40;;
22794;SDS011;11564;50.920;11.612;2023-08-07T09:58:34;2.50;;;0.40;;
22794;SDS011;11564;50.920;11.612;2023-08-07T10:01:00;1.00;;;0.30;;
22794;SDS011;11564;50.920;11.612;2023-08-07T10:03:29;0.60;;;0.37;;
22794;SDS011;11564;50.920;11.612;2023-08-07T10:05:55;0.63;;;0.40;;
22794;SDS011;11564;50.920;11.612;2023-08-07T10:08:21;0.70;;;0.40;;
22794;SDS011;11564;50.920;11.612;2023-08-07T10:10:47;2.30;;;0.40;;
22794;SDS011;11564;50.920;11.612;2023-08-07T10:13:13;0.93;;;0.30;;
22794;SDS011;11564;50.920;11.612;2023-08-07T10:15:39;0.50;;;0.30;;
22794;SDS011;11564;50.920;11.612;2023-08-07T10:18:07;4.17;;;0.50;;
22794;SDS011;11564;50.920;11.612;2023-08-07T10:20:33;0.60;;;0.30;;
22794;SDS011;11564;50.920;11.612;2023-08-07T10:23:00;0.60;;;0.40;;
22794;SDS011;11564;50.920;11.612;2023-08-07T10:25:32;2.20;;;0.30;;
22794;SDS011;11564;50.920;11.612;2023-08-07T10:28:00;0.60;;;0.37;;
22794;SDS011;11564;50.920;11.612;2023-08-07T10:30:27;2.03;;;0.60;;
22794;SDS011;11564;50.920;11.612;2023-08-07T10:32:54;0.60;;;0.40;;
22794;SDS011;11564;50.920;11.612;2023-08-07T10:35:44;2.30;;;0.40;;
22794;SDS011;11564;50.920;11.612;2023-08-07T10:38:13;0.70;;;0.40;;
22794;SDS011;11564;50.920;11.612;2023-08-07T10:43:23;1.47;;;0.50;;
22794;SDS011;11564;50.920;11.612;2023-08-07T10:45:50;0.70;;;0.37;;
22794;SDS011;11564;50.920;11.612;2023-08-07T10:48:19;1.27;;;1.17;;
22794;SDS011;11564;50.920;11.612;2023-08-07T10:50:50;0.70;;;0.40;;
22794;SDS011;11564;50.920;11.612;2023-08-07T10:53:35;0.87;;;0.40;;
22794;SDS011;11564;50.920;11.612;2023-08-07T10:56:02;0.70;;;0.50;;
22794;SDS011;11564;50.920;11.612;2023-08-07T10:58:33;0.60;;;0.40;;
22794;SDS011;11564;50.920;11.612;2023-08-07T11:01:19;0.70;;;0.50;;
22794;SDS011;11564;50.920;11.612;2023-08-07T11:06:23;1.00;;;0.70;;
22794;SDS011;11564;50.920;11.612;2023-08-07T11:08:59;1.00;;;0.67;;
22794;SDS011;11564;50.920;11.612;2023-08-07T11:11:26;2.00;;;0.60;;
22794;SDS011;11564;50.920;11.612;2023-08-07T11:13:52;0.63;;;0.40;;
22794;SDS011;11564;50.920;11.612;2023-08-07T11:16:18;2.30;;;0.50;;
22794;SDS011;11564;50.920;11.612;2023-08-07T11:18:46;0.80;;;0.70;;
22794;SDS011;11564;50.920;11.612;2023-08-07T11:21:12;1.13;;;0.60;;
22794;SDS011;11564;50.920;11.612;2023-08-07T11:23:38;0.70;;;0.60;;
22794;SDS011;11564;50.920;11.612;2023-08-07T11:26:05;0.60;;;0.40;;
22794;SDS011;11564;50.920;11.612;2023-08-07T11:28:31;0.73;;;0.50;;
22794;SDS011;11564;50.920;11.612;2023-08-07T11:30:56;2.70;;;0.40;;
22794;SDS011;11564;50.920;11.612;2023-08-07T11:33:26;0.60;;;0.50;;
22794;SDS011;11564;50.920;11.612;2023-08-07T11:35:52;0.60;;;0.40;;
22794;SDS011;11564;50.920;11.612;2023-08-07T11:41:01;0.60;;;0.40;;
22794;SDS011;11564;50.920;11.612;2023-08-07T11:43:28;0.60;;;0.40;;
22794;SDS011;11564;50.920;11.612;2023-08-07T11:45:55;0.70;;;0.60;;
22794;SDS011;11564;50.920;11.612;2023-08-07T11:48:28;0.70;;;0.40;;
22794;SDS011;11564;50.920;11.612;2023-08-07T11:50:55;0.70;;;0.50;;
22794;SDS011;11564;50.920;11.612;2023-08-07T11:53:22;0.60;;;0.40;;
22794;SDS011;11564;50.920;11.612;2023-08-07T11:55:53;2.30;;;0.50;;
22794;SDS011;11564;50.920;11.612;2023-08-07T11:58:23;0.70;;;0.37;;
22794;SDS011;11564;50.920;11.612;2023-08-07T12:00:50;0.60;;;0.50;;
22794;SDS011;11564;50.920;11.612;2023-08-07T12:03:25;1.33;;;0.40;;
22794;SDS011;11564;50.920;11.612;2023-08-07T12:08:23;3.13;;;0.43;;
22794;SDS011;11564;50.920;11.612;2023-08-07T12:10:55;0.70;;;0.40;;
22794;SDS011;11564;50.920;11.612;2023-08-07T12:13:24;0.80;;;0.60;;
22794;SDS011;11564;50.920;11.612;2023-08-07T12:15:53;0.70;;;0.50;;
22794;SDS011;11564;50.920;11.612;2023-08-07T12:18:22;3.07;;;0.50;;
22794;SDS011;11564;50.920;11.612;2023-08-07T12:20:51;1.47;;;0.50;;
22794;SDS011;11564;50.920;11.612;2023-08-07T12:23:17;2.00;;;0.40;;
22794;SDS011;11564;50.920;11.612;2023-08-07T12:25:45;0.97;;;0.50;;
22794;SDS011;11564;50.920;11.612;2023-08-07T12:28:11;0.97;;;0.40;;
22794;SDS011;11564;50.920;11.612;2023-08-07T12:30:36;0.73;;;0.43;;
22794;SDS011;11564;50.920;11.612;2023-08-07T12:33:03;0.70;;;0.60;;
22794;SDS011;11564;50.920;11.612;2023-08-07T12:35:32;0.90;;;0.70;;
22794;SDS011;11564;50.920;11.612;2023-08-07T12:37:59;1.40;;;0.80;;
22794;SDS011;11564;50.920;11.612;2023-08-07T12:40:24;1.10;;;0.60;;
22794;SDS011;11564;50.920;11.612;2023-08-07T12:42:50;2.20;;;0.60;;
22794;SDS011;11564;50.920;11.612;2023-08-07T12:45:16;3.73;;;0.90;;
22794;SDS011;11564;50.920;11.612;2023-08-07T12:47:43;10.03;;;1.00;;
22794;SDS011;11564;50.920;11.612;2023-08-07T12:50:10;1.13;;;0.70;;
22794;SDS011;11564;50.920;11.612;2023-08-07T12:52:35;1.10;;;0.80;;
22794;SDS011;11564;50.920;11.612;2023-08-07T12:55:01;3.47;;;1.00;;
22794;SDS011;11564;50.920;11.612;2023-08-07T12:57:26;1.17;;;0.90;;
22794;SDS011;11564;50.920;11.612;2023-08-07T12:59:52;1.00;;;0.70;;
22794;SDS011;11564;50.920;11.612;2023-08-07T13:02:18;0.80;;;0.70;;
22794;SDS011;11564;50.920;11.612;2023-08-07T13:04:43;0.90;;;0.50;;
22794;SDS011;11564;50.920;11.612;2023-08-07T13:07:09;1.80;;;0.80;;
22794;SDS011;11564;50.920;11.612;2023-08-07T13:09:34;0.80;;;0.67;;
22794;SDS011;11564;50.920;11.612;2023-08-07T13:12:00;1.37;;;0.73;;
22794;SDS011;11564;50.920;11.612;2023-08-07T13:14:26;0.67;;;0.63;;
22794;SDS011;11564;50.920;11.612;2023-08-07T13:16:51;1.10;;;0.60;;
22794;SDS011;11564;50.920;11.612;2023-08-07T13:19:17;0.93;;;0.53;;
22794;SDS011;11564;50.920;11.612;2023-08-07T13:21:43;1.10;;;0.57;;
22794;SDS011;11564;50.920;11.612;2023-08-07T13:24:08;1.00;;;0.50;;
22794;SDS011;11564;50.920;11.612;2023-08-07T13:26:34;1.00;;;0.60;;
22794;SDS011;11564;50.920;11.612;2023-08-07T13:29:00;0.80;;;0.63;;
22794;SDS011;11564;50.920;11.612;2023-08-07T13:31:25;2.40;;;0.50;;
22794;SDS011;11564;50.920;11.612;2023-08-07T13:33:51;1.30;;;0.60;;
22794;SDS011;11564;50.920;11.612;2023-08-07T13:36:17;0.80;;;0.40;;
22794;SDS011;11564;50.920;11.612;2023-08-07T13:38:42;0.70;;;0.60;;
22794;SDS011;11564;50.920;11.612;2023-08-07T13:41:08;1.73;;;0.70;;
22794;SDS011;11564;50.920;11.612;2023-08-07T13:43:34;0.90;;;0.50;;
22794;SDS011;11564;50.920;11.612;2023-08-07T13:45:59;2.40;;;0.60;;
22794;SDS011;11564;50.920;11.612;2023-08-07T13:48:25;0.70;;;0.40;;
22794;SDS011;11564;50.920;11.612;2023-08-07T13:50:52;5.37;;;0.50;;
22794;SDS011;11564;50.920;11.612;2023-08-07T13:53:18;0.67;;;0.40;;
22794;SDS011;11564;50.920;11.612;2023-08-07T13:55:45;1.13;;;0.30;;
22794;SDS011;11564;50.920;11.612;2023-08-07T13:58:11;0.97;;;0.50;;
22794;SDS011;11564;50.920;11.612;2023-08-07T14:00:40;0.70;;;0.43;;
22794;SDS011;11564;50.920;11.612;2023-08-07T14:03:07;1.10;;;0.50;;
22794;SDS011;11564;50.920;11.612;2023-08-07T14:05:34;0.80;;;0.60;;
22794;SDS011;11564;50.920;11.612;2023-08-07T14:08:00;0.90;;;0.40;;
22794;SDS011;11564;50.920;11.612;2023-08-07T14:10:26;0.70;;;0.50;;
22794;SDS011;11564;50.920;11.612;2023-08-07T14:12:51;0.80;;;0.50;;
22794;SDS011;11564;50.920;11.612;2023-08-07T14:15:17;2.47;;;0.50;;
22794;SDS011;11564;50.920;11.612;2023-08-07T14:17:43;0.80;;;0.50;;
22794;SDS011;11564;50.920;11.612;2023-08-07T14:20:09;0.70;;;0.50;;
22794;SDS011;11564;50.920;11.612;2023-08-07T14:22:36;2.10;;;0.50;;
22794;SDS011;11564;50.920;11.612;2023-08-07T14:25:03;2.50;;;0.77;;
22794;SDS011;11564;50.920;11.612;2023-08-07T14:27:30;1.30;;;0.53;;
22794;SDS011;11564;50.920;11.612;2023-08-07T14:29:56;3.03;;;0.60;;
22794;SDS011;11564;50.920;11.612;2023-08-07T14:32:21;2.27;;;0.67;;
22794;SDS011;11564;50.920;11.612;2023-08-07T14:34:47;3.23;;;0.70;;
22794;SDS011;11564;50.920;11.612;2023-08-07T14:37:14;0.70;;;0.40;;
22794;SDS011;11564;50.920;11.612;2023-08-07T14:39:39;0.90;;;0.70;;
22794;SDS011;11564;50.920;11.612;2023-08-07T14:42:05;0.80;;;0.50;;
22794;SDS011;11564;50.920;11.612;2023-08-07T14:44:32;23.27;;;2.80;;